Kralendijk, Netherlands Antilles
Current Conditions -  °F | °C
As of 10:00 AM on Thursday 30 Oct 2014 (Local Time) from TNCC Reporting Station
Scattered Clouds Scattered Clouds  
Wind Chill: 88°   Ceiling: Unl
Heat Index: 98°   Visibility: 6mi
Dew Point: 75°   Wind: 12mph
Humidity: 66%   Direction: 90°E
Pressure: 29.85"   Gusts: NA
Location:  12.15°N, 68.28°W
Report Text: TNCC 301400Z 09010KT 9999 SCT023 31/24 Q1011 NOSIG
Loading
Personal Weather Stations






























Interactive Weather Map New forecast layout! Learn more

10-Day Weather Forecast

Advertisements
Track Severe Weather on mobile